Time;durP1;ratioP1;P1;durP2;ratioP2;P2;SDS_P1;SDS_P2;PMS_P1;PMS_P2;Temp;Humidity;BMP_temperature;BMP_pressure;BME280_temperature;BME280_humidity;BME280_pressure;Samples;Min_cycle;Max_cycle;Signal;HPM_P1;HPM_P2
2022/04/05 00:01:17;;;;;;;11.27;6.28;;;11.20;93.80;;;;;;4984636;28;20030;-75
2022/04/05 00:03:43;;;;;;;11.10;6.53;;;11.20;93.80;;;;;;4982110;28;20468;-75
2022/04/05 00:06:09;;;;;;;14.30;7.40;;;11.20;94.20;;;;;;4987714;28;20085;-75
2022/04/05 00:08:34;;;;;;;13.05;6.63;;;11.20;94.30;;;;;;4982089;28;20026;-75
2022/04/05 00:11:00;;;;;;;16.73;6.20;;;11.20;94.30;;;;;;4985412;28;20043;-75
2022/04/05 00:13:26;;;;;;;13.43;6.53;;;11.20;94.30;;;;;;4983405;28;20132;-75
2022/04/05 00:15:52;;;;;;;12.63;7.00;;;11.20;94.30;;;;;;4982276;28;20027;-75
2022/04/05 00:18:18;;;;;;;10.65;6.70;;;11.20;94.40;;;;;;4972533;28;20031;-75
2022/04/05 00:20:43;;;;;;;12.43;7.10;;;11.20;94.50;;;;;;4977937;28;20093;-75
2022/04/05 00:23:09;;;;;;;13.30;7.18;;;11.20;94.70;;;;;;4981780;28;20416;-75
2022/04/05 00:25:35;;;;;;;11.38;7.25;;;11.20;94.90;;;;;;4986802;28;20034;-76
2022/04/05 00:28:02;;;;;;;11.25;7.15;;;11.20;95.00;;;;;;4984657;28;20069;-76
2022/04/05 00:30:27;;;;;;;12.38;7.93;;;11.20;95.20;;;;;;4986240;28;20027;-75
2022/04/05 00:32:53;;;;;;;11.05;7.38;;;11.20;95.40;;;;;;4981500;28;20045;-75
2022/04/05 00:35:19;;;;;;;15.30;7.45;;;11.20;95.70;;;;;;4985048;28;20045;-75
2022/04/05 00:37:45;;;;;;;11.25;7.10;;;11.30;95.80;;;;;;4985398;28;20109;-75
2022/04/05 00:40:11;;;;;;;12.52;7.22;;;11.20;95.90;;;;;;4984541;28;20397;-76
2022/04/05 00:42:37;;;;;;;11.20;7.57;;;11.30;96.10;;;;;;4981865;28;20049;-75
2022/04/05 00:45:07;;;;;;;11.00;7.55;;;11.30;96.20;;;;;;4988393;28;20022;-76
2022/04/05 00:47:35;;;;;;;12.82;7.55;;;11.30;96.40;;;;;;4988174;28;20041;-75
2022/04/05 00:50:01;;;;;;;11.75;7.65;;;11.30;96.50;;;;;;4978475;28;20046;-75
2022/04/05 00:52:31;;;;;;;12.50;7.88;;;11.20;96.80;;;;;;4979652;28;20031;-75
2022/04/05 00:55:03;;;;;;;10.77;7.38;;;11.30;97.00;;;;;;4975313;28;20049;-75
2022/04/05 00:57:34;;;;;;;13.77;7.78;;;11.20;97.00;;;;;;4986333;28;20058;-75
2022/04/05 01:00:07;;;;;;;13.55;7.40;;;11.20;97.10;;;;;;4970278;28;20495;-75
2022/04/05 01:02:40;;;;;;;12.23;7.85;;;11.20;97.20;;;;;;4974792;28;20050;-74
2022/04/05 01:05:10;;;;;;;12.75;7.85;;;11.20;97.40;;;;;;4981739;28;20064;-74
2022/04/05 01:07:42;;;;;;;13.18;8.30;;;11.20;97.50;;;;;;4981668;28;20034;-74
2022/04/05 01:10:12;;;;;;;12.95;8.00;;;11.20;97.70;;;;;;4979192;28;20041;-74
2022/04/05 01:12:42;;;;;;;12.88;8.40;;;11.20;97.90;;;;;;4970951;28;20075;-74
2022/04/05 01:15:15;;;;;;;14.77;8.53;;;11.20;98.00;;;;;;4979408;28;20038;-74
2022/04/05 01:17:44;;;;;;;13.60;8.30;;;11.20;98.50;;;;;;4982504;28;20109;-74
2022/04/05 01:20:17;;;;;;;13.13;9.02;;;11.20;98.60;;;;;;4983254;28;20112;-75
2022/04/05 01:22:57;;;;;;;13.50;9.00;;;11.20;98.60;;;;;;4979503;28;20043;-75
2022/04/05 01:25:30;;;;;;;14.48;9.20;;;11.20;98.90;;;;;;4973937;28;20027;-74
2022/04/05 01:28:02;;;;;;;16.40;9.75;;;11.20;99.00;;;;;;4948630;28;20059;-75
2022/04/05 01:30:31;;;;;;;14.25;8.98;;;11.20;99.00;;;;;;4933036;28;20031;-74
2022/04/05 01:32:59;;;;;;;15.82;9.85;;;11.20;99.00;;;;;;4946769;29;20125;-74
2022/04/05 01:35:25;;;;;;;16.67;9.85;;;11.20;99.00;;;;;;4949812;28;20037;-75
2022/04/05 01:37:51;;;;;;;16.67;10.38;;;11.20;99.30;;;;;;4944072;29;20027;-75
2022/04/05 01:40:20;;;;;;;13.57;9.48;;;11.20;99.40;;;;;;4945188;29;20042;-75
2022/04/05 01:42:46;;;;;;;14.68;9.43;;;11.20;99.40;;;;;;4939599;28;20511;-75
2022/04/05 01:45:11;;;;;;;16.30;10.50;;;11.20;99.40;;;;;;4942155;28;20042;-75
2022/04/05 01:47:38;;;;;;;16.35;9.93;;;11.20;99.50;;;;;;4951397;28;20035;-74
2022/04/05 01:50:05;;;;;;;16.27;10.05;;;11.30;99.70;;;;;;4944225;28;20053;-75
2022/04/05 01:52:31;;;;;;;18.13;10.73;;;11.30;99.80;;;;;;4942953;28;20028;-74
2022/04/05 01:54:56;;;;;;;16.60;9.98;;;11.30;99.90;;;;;;4939341;28;20046;-75
2022/04/05 01:57:22;;;;;;;16.52;10.32;;;11.30;99.90;;;;;;4951836;28;20031;-74
2022/04/05 01:59:48;;;;;;;16.98;10.98;;;11.30;99.90;;;;;;4938770;28;20030;-75
2022/04/05 02:02:14;;;;;;;18.75;10.63;;;11.20;99.90;;;;;;4948354;28;20049;-74
2022/04/05 02:04:40;;;;;;;18.13;10.73;;;11.30;99.90;;;;;;4954073;28;20215;-74
2022/04/05 02:07:18;;;;;;;18.20;10.77;;;11.30;99.90;;;;;;4950793;28;20037;-75
2022/04/05 02:09:45;;;;;;;18.40;11.00;;;11.20;99.90;;;;;;4955130;28;20059;-75
2022/04/05 02:12:11;;;;;;;16.80;11.05;;;11.30;99.90;;;;;;4950925;28;20125;-75
2022/04/05 02:14:38;;;;;;;20.13;10.95;;;11.30;99.90;;;;;;4952592;28;20050;-74
2022/04/05 02:17:04;;;;;;;20.10;11.25;;;11.30;99.90;;;;;;4945112;28;20082;-75
2022/04/05 02:19:30;;;;;;;18.17;11.20;;;11.30;99.90;;;;;;4940978;28;20281;-75
2022/04/05 02:21:57;;;;;;;19.05;11.65;;;11.30;99.90;;;;;;4946596;28;20498;-74
2022/04/05 02:24:23;;;;;;;22.73;12.60;;;11.30;99.90;;;;;;4956871;28;20039;-74
2022/04/05 02:26:49;;;;;;;19.92;12.77;;;11.30;99.90;;;;;;4971328;28;20049;-74
2022/04/05 02:29:15;;;;;;;21.92;12.00;;;11.30;99.90;;;;;;4981898;28;20061;-74
2022/04/05 02:31:41;;;;;;;20.83;12.25;;;11.30;99.90;;;;;;4984614;28;20112;-74
2022/04/05 02:34:08;;;;;;;21.85;12.90;;;11.30;99.90;;;;;;4987200;28;20488;-74
2022/04/05 02:36:35;;;;;;;22.23;12.20;;;11.30;99.90;;;;;;4987507;28;20045;-74
2022/04/05 02:39:00;;;;;;;21.48;12.40;;;11.30;99.90;;;;;;4987550;28;20042;-75
2022/04/05 02:41:27;;;;;;;23.67;12.52;;;11.30;99.90;;;;;;4988674;28;20531;-74
2022/04/05 02:43:53;;;;;;;22.65;12.60;;;11.30;99.90;;;;;;4985012;28;20507;-75
2022/04/05 02:46:20;;;;;;;23.88;13.30;;;11.30;99.90;;;;;;4986657;28;20030;-75
2022/04/05 02:48:46;;;;;;;23.35;13.48;;;11.30;99.90;;;;;;4987053;28;20142;-76
2022/04/05 02:51:15;;;;;;;28.05;13.95;;;11.30;99.90;;;;;;4975724;28;20089;-75
2022/04/05 02:53:42;;;;;;;24.38;13.57;;;11.30;99.90;;;;;;4987195;28;20030;-75
2022/04/05 02:56:09;;;;;;;25.48;13.68;;;11.30;99.90;;;;;;4980331;28;20078;-75
2022/04/05 02:58:35;;;;;;;22.10;13.32;;;11.30;99.90;;;;;;4983876;28;20046;-75
2022/04/05 03:01:02;;;;;;;24.70;14.68;;;11.30;99.90;;;;;;4984393;28;20113;-75
2022/04/05 03:03:28;;;;;;;25.30;13.77;;;11.30;99.90;;;;;;4989636;28;20061;-75
2022/04/05 03:05:54;;;;;;;25.20;13.32;;;11.30;99.90;;;;;;4985791;28;20112;-74
2022/04/05 03:08:19;;;;;;;26.67;13.68;;;11.30;99.90;;;;;;4987520;28;20058;-74
2022/04/05 03:10:45;;;;;;;25.83;14.02;;;11.30;99.90;;;;;;4981149;28;20026;-74
2022/04/05 03:13:12;;;;;;;24.70;13.38;;;11.40;99.90;;;;;;4981598;28;20118;-74
2022/04/05 03:15:37;;;;;;;26.52;14.15;;;11.40;99.90;;;;;;4985266;28;20057;-74
2022/04/05 03:18:03;;;;;;;25.55;14.07;;;11.40;99.90;;;;;;4989699;28;20060;-74
2022/04/05 03:20:31;;;;;;;27.98;13.45;;;11.40;99.90;;;;;;4985803;28;20081;-74
2022/04/05 03:23:00;;;;;;;28.02;14.38;;;11.40;99.90;;;;;;4984529;28;20046;-75
2022/04/05 03:25:26;;;;;;;24.77;14.15;;;11.40;99.90;;;;;;4986238;28;20551;-74
2022/04/05 03:27:52;;;;;;;27.02;14.27;;;11.40;99.90;;;;;;4985706;28;20047;-74
2022/04/05 03:30:20;;;;;;;23.10;13.77;;;11.40;99.90;;;;;;4988877;28;20061;-75
2022/04/05 03:32:46;;;;;;;23.55;13.82;;;11.40;99.90;;;;;;4989372;28;20030;-74
2022/04/05 03:35:12;;;;;;;26.88;14.27;;;11.40;99.90;;;;;;4984371;28;20109;-74
2022/04/05 03:37:38;;;;;;;26.75;13.85;;;11.40;99.90;;;;;;4987787;28;20121;-75
2022/04/05 03:40:05;;;;;;;22.90;14.07;;;11.40;99.90;;;;;;4986834;28;20048;-74
2022/04/05 03:42:31;;;;;;;29.63;14.57;;;11.40;99.90;;;;;;4983806;28;20062;-74
2022/04/05 03:44:57;;;;;;;28.17;13.60;;;11.40;99.90;;;;;;4989541;28;20791;-75
2022/04/05 03:47:23;;;;;;;28.98;14.43;;;11.40;99.90;;;;;;4980049;28;20042;-74
2022/04/05 03:49:49;;;;;;;26.55;14.13;;;11.40;99.90;;;;;;4984330;28;20395;-74
2022/04/05 03:52:15;;;;;;;31.45;14.73;;;11.40;99.90;;;;;;4984183;28;20039;-75
2022/04/05 03:54:41;;;;;;;23.50;14.38;;;11.50;99.90;;;;;;4985269;28;20019;-74
2022/04/05 03:57:06;;;;;;;28.50;14.50;;;11.40;99.90;;;;;;4989256;28;20094;-74
2022/04/05 03:59:32;;;;;;;29.90;14.52;;;11.50;99.90;;;;;;4976455;28;20031;-74
2022/04/05 04:01:58;;;;;;;24.30;13.77;;;11.50;99.90;;;;;;4985897;28;20030;-74
2022/04/05 04:04:24;;;;;;;25.67;14.23;;;11.50;99.90;;;;;;4984612;28;20037;-78
2022/04/05 04:06:49;;;;;;;26.45;14.85;;;11.50;99.90;;;;;;4985570;28;20033;-74
2022/04/05 04:09:15;;;;;;;27.30;15.02;;;11.50;99.90;;;;;;4986425;28;20425;-73
2022/04/05 04:11:41;;;;;;;28.73;14.43;;;11.50;99.90;;;;;;4986265;28;20437;-75
2022/04/05 04:14:07;;;;;;;32.40;15.00;;;11.50;99.90;;;;;;4983728;28;20041;-74
2022/04/05 04:16:34;;;;;;;27.48;14.98;;;11.50;99.90;;;;;;4986586;28;20077;-74
2022/04/05 04:18:59;;;;;;;24.63;14.88;;;11.50;99.90;;;;;;4986489;28;20030;-74
2022/04/05 04:21:25;;;;;;;27.13;15.15;;;11.50;99.90;;;;;;4986891;28;20042;-74
2022/04/05 04:23:51;;;;;;;24.40;14.35;;;11.50;99.90;;;;;;4975186;28;20045;-74
2022/04/05 04:26:18;;;;;;;28.17;15.20;;;11.50;99.90;;;;;;4975219;28;20031;-74
2022/04/05 04:28:43;;;;;;;29.02;14.75;;;11.50;99.90;;;;;;4978108;28;20031;-74
2022/04/05 04:31:09;;;;;;;25.45;13.98;;;11.50;99.90;;;;;;4985533;28;20037;-74
2022/04/05 04:33:35;;;;;;;26.05;14.25;;;11.50;99.90;;;;;;4980254;28;20041;-74
2022/04/05 04:36:01;;;;;;;27.75;14.77;;;11.50;99.90;;;;;;4985026;28;20053;-75
2022/04/05 04:38:27;;;;;;;32.38;15.45;;;11.50;99.90;;;;;;4976230;28;20046;-75
2022/04/05 04:40:52;;;;;;;26.05;14.50;;;11.50;99.90;;;;;;4982431;28;20374;-74
2022/04/05 04:43:19;;;;;;;23.52;14.38;;;11.50;99.90;;;;;;4984182;28;20097;-75
2022/04/05 04:45:45;;;;;;;25.27;14.30;;;11.50;99.90;;;;;;4984571;28;20077;-76
2022/04/05 04:48:13;;;;;;;24.15;14.43;;;11.50;99.90;;;;;;4983934;28;20046;-76
2022/04/05 04:50:39;;;;;;;25.52;13.77;;;11.50;99.90;;;;;;4986925;28;20026;-76
2022/04/05 04:53:05;;;;;;;36.15;20.25;;;11.50;99.90;;;;;;4985625;28;20034;-76
2022/04/05 04:55:32;;;;;;;27.00;14.98;;;11.50;99.90;;;;;;4985697;28;20037;-75
2022/04/05 04:57:58;;;;;;;23.75;14.05;;;11.60;99.90;;;;;;4983774;28;20038;-74
2022/04/05 05:00:25;;;;;;;20.45;13.23;;;11.60;99.90;;;;;;4985437;28;20037;-75
2022/04/05 05:02:51;;;;;;;22.48;13.05;;;11.60;99.90;;;;;;4984605;28;20408;-74
2022/04/05 05:05:21;;;;;;;24.60;13.48;;;11.60;99.90;;;;;;4984036;28;20124;-76
2022/04/05 05:07:48;;;;;;;23.17;12.38;;;11.60;99.90;;;;;;4984568;28;20033;-74
2022/04/05 05:10:15;;;;;;;19.02;11.85;;;11.60;99.90;;;;;;4985133;28;20401;-74
2022/04/05 05:12:41;;;;;;;23.42;12.30;;;11.50;99.90;;;;;;4985107;28;20029;-73
2022/04/05 05:15:08;;;;;;;19.15;11.48;;;11.60;99.90;;;;;;4987032;28;20039;-74
2022/04/05 05:17:35;;;;;;;20.98;11.40;;;11.60;99.90;;;;;;4984807;28;20030;-74
2022/04/05 05:20:02;;;;;;;18.98;12.18;;;11.50;99.90;;;;;;4985751;28;20089;-73
2022/04/05 05:22:31;;;;;;;20.52;11.95;;;11.50;99.90;;;;;;4984517;28;20405;-76
2022/04/05 05:24:56;;;;;;;17.92;11.20;;;11.60;99.90;;;;;;4984301;28;20793;-77
2022/04/05 05:27:22;;;;;;;20.10;11.50;;;11.50;99.90;;;;;;4986582;28;20070;-73
2022/04/05 05:29:48;;;;;;;19.40;11.35;;;11.60;99.90;;;;;;4987591;28;20109;-75
2022/04/05 05:32:14;;;;;;;17.63;11.38;;;11.60;99.90;;;;;;4984472;28;20121;-76
2022/04/05 05:34:39;;;;;;;18.83;11.10;;;11.60;99.90;;;;;;4986406;28;20493;-74
2022/04/05 05:37:05;;;;;;;20.35;11.20;;;11.60;99.90;;;;;;4981511;28;20030;-74
2022/04/05 05:39:32;;;;;;;20.50;12.00;;;11.60;99.90;;;;;;4984679;28;20034;-73
2022/04/05 05:41:58;;;;;;;21.42;11.50;;;11.60;99.90;;;;;;4985059;28;20038;-74
2022/04/05 05:44:24;;;;;;;20.67;11.57;;;11.60;99.90;;;;;;4982660;28;20031;-74
2022/04/05 05:46:50;;;;;;;21.52;11.38;;;11.60;99.90;;;;;;4989262;28;20038;-74
2022/04/05 05:49:16;;;;;;;19.58;11.15;;;11.60;99.90;;;;;;4987662;28;20029;-75
2022/04/05 05:51:42;;;;;;;20.63;11.45;;;11.60;99.90;;;;;;4988082;28;20026;-74
2022/04/05 05:54:08;;;;;;;18.35;10.57;;;11.60;99.90;;;;;;4988647;28;20030;-75
2022/04/05 05:56:34;;;;;;;18.13;11.20;;;11.60;99.90;;;;;;4989771;28;20096;-74
2022/04/05 05:59:00;;;;;;;18.23;11.43;;;11.60;99.90;;;;;;4991645;28;20034;-74
2022/04/05 06:01:25;;;;;;;16.42;10.93;;;11.60;99.90;;;;;;4988599;28;20066;-75
2022/04/05 06:03:51;;;;;;;20.23;10.38;;;11.70;99.90;;;;;;4989095;28;20125;-75
2022/04/05 06:06:17;;;;;;;21.30;10.95;;;11.70;99.90;;;;;;4989636;28;20556;-76
2022/04/05 06:08:43;;;;;;;17.15;10.68;;;11.70;99.90;;;;;;4990964;28;20027;-76
2022/04/05 06:11:10;;;;;;;19.85;10.48;;;11.80;99.90;;;;;;4990964;28;20141;-76
2022/04/05 06:13:36;;;;;;;19.30;10.60;;;11.80;99.90;;;;;;4990125;28;20089;-76
2022/04/05 06:16:03;;;;;;;18.05;10.55;;;11.80;99.90;;;;;;4989263;28;20411;-77
2022/04/05 06:18:28;;;;;;;17.52;10.52;;;11.90;99.90;;;;;;4986388;28;20034;-77
2022/04/05 06:20:54;;;;;;;18.27;10.32;;;11.90;99.90;;;;;;4989319;28;20026;-76
2022/04/05 06:23:20;;;;;;;19.35;11.40;;;11.90;99.90;;;;;;4986969;28;20382;-75
2022/04/05 06:25:46;;;;;;;23.10;11.52;;;11.90;99.90;;;;;;4989186;28;20073;-75
2022/04/05 06:28:12;;;;;;;20.10;11.48;;;11.90;99.90;;;;;;4988782;28;20108;-74
2022/04/05 06:30:39;;;;;;;21.35;11.57;;;11.90;99.90;;;;;;4989292;28;20509;-74
2022/04/05 06:33:07;;;;;;;20.35;11.48;;;12.00;99.90;;;;;;4989517;28;20563;-74
2022/04/05 06:35:32;;;;;;;20.40;12.05;;;12.00;99.90;;;;;;4992011;28;20504;-74
2022/04/05 06:37:58;;;;;;;23.35;11.73;;;12.00;99.90;;;;;;4989842;28;20034;-74
2022/04/05 06:40:24;;;;;;;23.02;11.50;;;12.10;99.90;;;;;;4989398;28;20037;-75
2022/04/05 06:42:50;;;;;;;24.02;12.13;;;12.10;99.90;;;;;;4989748;28;20045;-75
2022/04/05 06:45:22;;;;;;;20.55;11.75;;;12.10;99.90;;;;;;4990390;28;20031;-74
2022/04/05 06:47:48;;;;;;;23.65;12.35;;;12.20;99.90;;;;;;4987883;28;20038;-75
2022/04/05 06:50:17;;;;;;;23.08;12.05;;;12.20;99.90;;;;;;4987384;28;20065;-75
2022/04/05 06:52:43;;;;;;;22.85;11.23;;;12.30;99.90;;;;;;4983557;28;20042;-75
2022/04/05 06:55:10;;;;;;;19.42;11.55;;;12.30;99.90;;;;;;4988814;28;20033;-75
2022/04/05 06:57:36;;;;;;;22.27;11.52;;;12.30;99.90;;;;;;4986761;28;20468;-75
2022/04/05 07:00:07;;;;;;;20.38;10.65;;;12.40;99.90;;;;;;4985521;28;20023;-76
2022/04/05 07:02:33;;;;;;;;;;;12.40;99.90;;;;;;4987640;28;20034;-74
2022/04/05 07:04:59;;;;;;;19.80;10.48;;;12.40;99.90;;;;;;4987681;28;19909;-75
2022/04/05 07:07:25;;;;;;;24.75;10.80;;;12.40;99.90;;;;;;4989144;28;20026;-75
2022/04/05 07:09:51;;;;;;;22.70;10.70;;;12.50;99.90;;;;;;4988172;28;20030;-74
2022/04/05 07:14:52;;;;;;;23.17;10.50;;;12.40;99.90;;;;;;4623758;23;20051;-75
2022/04/05 07:17:18;;;;;;;22.80;9.98;;;12.40;99.90;;;;;;4959154;28;20077;-75
2022/04/05 07:19:44;;;;;;;20.85;10.35;;;12.40;99.90;;;;;;4960641;28;20032;-75
2022/04/05 07:22:10;;;;;;;17.98;9.95;;;12.40;99.90;;;;;;4961571;28;20039;-75
2022/04/05 07:24:36;;;;;;;22.88;11.10;;;12.40;99.90;;;;;;4962863;28;20046;-75
2022/04/05 07:27:02;;;;;;;24.48;10.63;;;12.40;99.90;;;;;;4961394;28;20039;-75
2022/04/05 07:29:27;;;;;;;23.05;10.43;;;12.40;99.90;;;;;;4962479;28;20031;-75
2022/04/05 07:31:53;;;;;;;21.50;9.73;;;12.40;99.90;;;;;;4960295;28;20159;-75
2022/04/05 07:34:19;;;;;;;24.25;9.85;;;12.50;99.90;;;;;;4965405;28;20046;-75
2022/04/05 07:36:45;;;;;;;20.60;9.70;;;12.50;99.90;;;;;;4957453;28;20030;-75
2022/04/05 07:39:10;;;;;;;23.65;9.45;;;12.50;99.90;;;;;;4962296;28;20042;-74
2022/04/05 07:41:36;;;;;;;27.05;9.23;;;12.60;99.90;;;;;;4959302;28;20030;-76
2022/04/05 07:44:03;;;;;;;27.15;9.50;;;12.90;99.90;;;;;;4956229;28;20083;-75
2022/04/05 07:46:29;;;;;;;21.90;9.43;;;13.10;99.90;;;;;;4956553;28;20074;-75
2022/04/05 07:48:55;;;;;;;18.98;9.48;;;13.30;99.90;;;;;;4962497;28;20031;-75
2022/04/05 07:51:20;;;;;;;21.70;10.32;;;13.50;99.90;;;;;;4961530;28;20528;-74
2022/04/05 07:53:46;;;;;;;21.25;9.30;;;14.10;98.10;;;;;;4957310;28;20402;-76
2022/04/05 07:56:13;;;;;;;21.77;8.70;;;14.50;96.50;;;;;;4956240;28;20158;-76
2022/04/05 07:58:45;;;;;;;17.73;8.25;;;14.20;97.30;;;;;;4962809;28;20031;-76
2022/04/05 08:01:11;;;;;;;22.05;8.73;;;14.00;98.20;;;;;;4960597;28;20121;-74
2022/04/05 08:03:38;;;;;;;20.10;8.20;;;14.00;98.40;;;;;;4959149;28;20054;-76
2022/04/05 08:06:04;;;;;;;17.55;8.55;;;13.90;98.50;;;;;;4962245;28;20062;-75
2022/04/05 08:08:30;;;;;;;19.05;8.82;;;13.80;98.50;;;;;;4963549;28;20030;-74
2022/04/05 08:10:57;;;;;;;21.52;8.88;;;13.80;98.50;;;;;;4961358;28;20557;-75
2022/04/05 08:13:23;;;;;;;15.52;8.52;;;13.90;98.20;;;;;;4958341;28;20521;-75
2022/04/05 08:15:49;;;;;;;20.20;8.00;;;14.10;97.40;;;;;;4964153;28;20043;-75
2022/04/05 08:18:15;;;;;;;17.92;7.43;;;14.20;96.90;;;;;;4960506;28;20038;-75
2022/04/05 08:20:41;;;;;;;19.35;7.10;;;14.10;96.90;;;;;;4958616;28;20509;-75
2022/04/05 08:23:10;;;;;;;15.27;7.18;;;14.10;97.20;;;;;;4961751;28;20039;-76
2022/04/05 08:25:36;;;;;;;15.27;7.53;;;14.00;96.70;;;;;;4958371;28;20410;-75
2022/04/05 08:28:03;;;;;;;17.90;8.10;;;13.90;96.70;;;;;;4957308;28;20034;-74
2022/04/05 08:30:30;;;;;;;16.35;6.90;;;13.90;96.80;;;;;;4959581;28;20031;-75
2022/04/05 08:32:56;;;;;;;18.40;7.10;;;13.80;96.70;;;;;;4957495;28;20034;-76
2022/04/05 08:35:22;;;;;;;14.88;6.78;;;13.90;96.50;;;;;;4961592;28;20031;-75
2022/04/05 08:37:50;;;;;;;15.93;6.35;;;13.90;96.40;;;;;;4962999;28;20407;-75
2022/04/05 08:40:18;;;;;;;15.23;6.20;;;13.90;96.20;;;;;;4958669;28;20035;-75
2022/04/05 08:42:47;;;;;;;14.65;6.05;;;13.90;96.10;;;;;;4958417;28;20176;-76
2022/04/05 08:45:14;;;;;;;17.27;5.93;;;13.90;96.60;;;;;;4955775;28;20490;-76
2022/04/05 08:47:52;;;;;;;13.80;5.60;;;13.80;96.60;;;;;;4957414;28;20131;-76
2022/04/05 08:50:20;;;;;;;13.48;6.05;;;13.80;96.70;;;;;;4959549;28;20073;-75
2022/04/05 08:52:48;;;;;;;17.80;6.22;;;13.80;96.70;;;;;;4957614;28;20062;-76
2022/04/05 08:55:15;;;;;;;14.10;5.38;;;13.90;96.90;;;;;;4953970;28;20447;-75
2022/04/05 08:57:41;;;;;;;15.88;6.18;;;13.90;96.70;;;;;;4953820;28;20035;-75
2022/04/05 09:00:09;;;;;;;12.57;5.40;;;14.00;96.40;;;;;;4956026;28;20031;-76
2022/04/05 09:02:35;;;;;;;15.80;5.00;;;14.00;96.20;;;;;;4959618;28;20043;-75
2022/04/05 09:05:02;;;;;;;18.00;5.63;;;13.90;96.20;;;;;;4961981;28;20125;-75
2022/04/05 09:07:32;;;;;;;14.75;6.00;;;13.80;96.50;;;;;;4968950;28;20034;-75
2022/04/05 09:10:16;;;;;;;15.98;5.50;;;13.80;96.80;;;;;;4963477;28;20481;-75
2022/04/05 09:12:50;;;;;;;13.90;5.60;;;13.80;97.00;;;;;;4957909;28;20138;-75
2022/04/05 09:15:18;;;;;;;16.83;5.78;;;13.80;97.00;;;;;;4961463;28;20046;-75
2022/04/05 09:17:46;;;;;;;12.90;5.43;;;13.80;96.80;;;;;;4961508;28;20042;-76
2022/04/05 09:20:13;;;;;;;12.63;5.53;;;13.80;97.00;;;;;;4960804;28;20130;-75
2022/04/05 09:22:40;;;;;;;14.18;5.57;;;13.80;96.90;;;;;;4959316;28;20182;-75
2022/04/05 09:25:08;;;;;;;15.10;5.45;;;13.80;97.20;;;;;;4959729;28;20031;-75
2022/04/05 09:27:46;;;;;;;12.45;5.05;;;13.90;96.70;;;;;;4961513;28;20449;-75
2022/04/05 09:30:13;;;;;;;12.23;5.13;;;13.90;96.70;;;;;;4960162;28;20030;-75
2022/04/05 09:32:42;;;;;;;10.90;4.70;;;13.90;96.60;;;;;;4960510;28;20023;-76
2022/04/05 09:35:08;;;;;;;13.02;4.88;;;14.10;96.40;;;;;;4958783;28;20031;-75
2022/04/05 09:37:38;;;;;;;12.30;5.10;;;14.10;96.20;;;;;;4960016;28;20027;-75
2022/04/05 09:40:32;;;;;;;16.88;5.70;;;14.20;96.30;;;;;;4960749;28;20039;-75
2022/04/05 09:43:12;;;;;;;13.75;5.57;;;14.20;96.50;;;;;;4960654;28;20036;-75
2022/04/05 09:45:48;;;;;;;13.80;6.27;;;14.20;96.30;;;;;;4954145;28;20027;-75
2022/04/05 09:48:24;;;;;;;14.45;7.60;;;14.30;96.60;;;;;;4964904;28;20672;-75
2022/04/05 09:51:10;;;;;;;16.10;9.48;;;14.40;96.10;;;;;;4959491;28;20024;-75
2022/04/05 09:53:39;;;;;;;17.50;9.30;;;14.50;95.50;;;;;;4955062;28;20490;-75
2022/04/05 09:56:10;;;;;;;16.70;8.57;;;14.80;95.00;;;;;;4962212;28;20106;-75
2022/04/05 09:58:52;;;;;;;11.73;5.40;;;15.20;93.90;;;;;;4960324;28;20046;-75
2022/04/05 10:01:22;;;;;;;14.27;5.32;;;15.70;92.60;;;;;;4964794;28;20490;-75
2022/04/05 10:04:09;;;;;;;14.43;4.80;;;15.80;91.60;;;;;;4959412;28;20038;-74
2022/04/05 10:06:39;;;;;;;11.52;4.32;;;15.90;91.00;;;;;;4955988;28;20506;-74
2022/04/05 10:09:06;;;;;;;7.15;3.42;;;15.70;90.40;;;;;;4951201;28;20041;-75
2022/04/05 10:11:34;;;;;;;10.70;3.75;;;15.50;90.30;;;;;;4958156;28;20062;-75
2022/04/05 10:14:00;;;;;;;11.57;3.90;;;15.40;90.40;;;;;;4959867;28;20093;-75
2022/04/05 10:16:28;;;;;;;13.27;3.60;;;15.50;90.50;;;;;;4959243;28;20038;-75
2022/04/05 10:19:00;;;;;;;12.65;3.95;;;15.70;90.20;;;;;;4957175;28;20655;-74
2022/04/05 10:21:28;;;;;;;10.32;4.40;;;15.90;89.90;;;;;;4955696;28;20047;-76
2022/04/05 10:23:56;;;;;;;11.43;4.43;;;16.10;87.90;;;;;;4955948;28;20055;-76
2022/04/05 10:26:27;;;;;;;12.23;4.70;;;15.90;89.50;;;;;;4955700;28;20058;-76
2022/04/05 10:28:56;;;;;;;13.27;4.97;;;15.70;90.40;;;;;;4956119;28;20066;-76
2022/04/05 10:31:57;;;;;;;13.60;4.28;;;15.50;90.50;;;;;;4957129;28;20035;-75
2022/04/05 10:34:34;;;;;;;7.57;4.15;;;15.40;90.40;;;;;;4963411;28;20131;-75
2022/04/05 10:37:12;;;;;;;8.50;3.55;;;15.40;90.40;;;;;;4963053;28;20026;-75
2022/04/05 10:39:40;;;;;;;8.60;3.22;;;15.50;89.30;;;;;;4965674;28;20038;-76
2022/04/05 10:42:08;;;;;;;10.25;3.95;;;15.40;89.50;;;;;;4967799;28;20037;-76
2022/04/05 10:44:38;;;;;;;9.25;3.55;;;15.10;90.70;;;;;;4962472;28;20035;-75
2022/04/05 10:47:06;;;;;;;9.50;4.45;;;14.90;91.70;;;;;;4965222;28;20034;-75
2022/04/05 10:49:49;;;;;;;12.63;5.20;;;14.80;92.40;;;;;;4960250;28;20074;-75
2022/04/05 10:52:23;;;;;;;11.70;5.57;;;14.90;92.50;;;;;;4956882;28;20046;-76
2022/04/05 10:54:52;;;;;;;11.70;5.18;;;15.20;91.40;;;;;;4955508;28;20031;-76
2022/04/05 10:57:32;;;;;;;11.20;5.00;;;15.30;90.80;;;;;;4960784;28;20030;-76
2022/04/05 11:00:07;;;;;;;12.68;5.75;;;15.20;91.00;;;;;;4964131;28;20111;-77
2022/04/05 11:02:43;;;;;;;9.20;4.97;;;15.00;91.90;;;;;;4961005;28;20051;-76
2022/04/05 11:05:12;;;;;;;10.23;5.28;;;14.90;92.00;;;;;;4963330;28;20070;-76
2022/04/05 11:07:56;;;;;;;11.15;5.60;;;15.00;91.60;;;;;;4960459;28;20023;-77
2022/04/05 11:10:46;;;;;;;9.65;3.88;;;14.80;91.80;;;;;;4968151;28;20022;-76
2022/04/05 11:13:16;;;;;;;6.07;3.33;;;14.60;92.40;;;;;;4959753;28;20031;-75
2022/04/05 11:15:46;;;;;;;8.65;3.88;;;14.50;92.90;;;;;;4957145;28;20592;-76
2022/04/05 11:18:22;;;;;;;11.32;4.32;;;14.50;93.40;;;;;;4966593;28;20425;-75
2022/04/05 11:20:51;;;;;;;9.02;3.92;;;14.40;93.60;;;;;;4958216;28;20031;-76
2022/04/05 11:23:18;;;;;;;9.23;4.43;;;14.40;93.90;;;;;;4959356;28;20043;-75
2022/04/05 11:25:45;;;;;;;10.02;4.72;;;14.30;94.20;;;;;;4958539;28;20537;-76
2022/04/05 11:28:15;;;;;;;9.52;4.10;;;14.60;94.00;;;;;;4968071;28;20058;-77
2022/04/05 11:30:51;;;;;;;;;;;15.00;93.10;;;;;;4965617;28;20490;-76
2022/04/05 11:33:39;;;;;;;10.32;4.50;;;15.30;91.80;;;;;;4959825;28;19921;-77
2022/04/05 11:36:09;;;;;;;12.10;4.20;;;15.20;90.90;;;;;;4959703;28;20081;-76
2022/04/05 11:38:39;;;;;;;11.23;4.40;;;15.10;90.50;;;;;;4958923;28;20023;-76
2022/04/05 11:41:09;;;;;;;10.23;4.07;;;15.30;90.60;;;;;;4965298;28;20533;-77
2022/04/05 11:43:42;;;;;;;10.75;3.58;;;15.80;89.10;;;;;;4958114;28;20490;-76
2022/04/05 11:46:12;;;;;;;11.73;3.58;;;16.30;84.50;;;;;;4955246;28;20458;-76
2022/04/05 11:48:43;;;;;;;8.25;3.70;;;16.50;81.90;;;;;;4961227;28;20114;-76
2022/04/05 11:51:12;;;;;;;9.60;3.97;;;16.50;80.60;;;;;;4959356;28;20073;-76
2022/04/05 11:53:38;;;;;;;11.05;3.80;;;16.30;81.10;;;;;;4964061;28;20694;-75
2022/04/05 11:56:14;;;;;;;11.27;4.07;;;16.10;82.70;;;;;;4957809;28;20045;-76
2022/04/05 11:58:50;;;;;;;13.02;4.00;;;15.90;84.70;;;;;;4959102;28;20023;-76
2022/04/05 12:01:24;;;;;;;11.40;3.50;;;15.70;85.60;;;;;;4953540;28;20387;-76
2022/04/05 12:03:59;;;;;;;9.50;4.20;;;15.50;86.20;;;;;;4959674;28;20074;-75
2022/04/05 12:06:31;;;;;;;10.40;3.90;;;15.30;87.30;;;;;;4959209;28;20051;-76
2022/04/05 12:08:59;;;;;;;13.45;3.90;;;15.20;87.70;;;;;;4960547;28;20035;-76
2022/04/05 12:11:30;;;;;;;9.15;3.55;;;15.10;89.00;;;;;;4959441;28;20070;-76
2022/04/05 12:14:09;;;;;;;11.57;3.75;;;15.10;89.40;;;;;;4958569;28;20113;-76
2022/04/05 12:16:51;;;;;;;14.18;3.60;;;15.00;89.50;;;;;;4960958;28;20042;-75
2022/04/05 12:19:21;;;;;;;11.93;3.78;;;15.00;90.10;;;;;;4963285;28;20037;-76
2022/04/05 12:22:02;;;;;;;13.90;3.92;;;15.00;90.10;;;;;;4959309;28;20597;-76
2022/04/05 12:24:29;;;;;;;9.77;3.80;;;15.00;90.20;;;;;;4959039;28;20034;-76
2022/04/05 12:26:59;;;;;;;12.93;4.38;;;14.90;89.80;;;;;;4959303;28;20458;-76
2022/04/05 12:29:26;;;;;;;10.93;3.65;;;14.90;89.70;;;;;;4961015;28;20089;-76
2022/04/05 12:31:53;;;;;;;14.85;4.13;;;14.90;89.90;;;;;;4955320;28;20620;-75
2022/04/05 12:34:19;;;;;;;11.45;3.78;;;15.00;89.90;;;;;;4958683;28;20035;-76
2022/04/05 12:36:53;;;;;;;13.40;3.95;;;15.10;89.50;;;;;;4957146;28;20035;-76
2022/04/05 12:39:27;;;;;;;10.25;4.15;;;15.20;88.60;;;;;;4962282;28;20026;-76
2022/04/05 12:41:57;;;;;;;16.35;4.13;;;15.30;87.90;;;;;;4962610;28;20022;-76